createdAt,value
2023-01-13T00:00:20.815Z,67.78
2023-01-13T00:02:48.220Z,69.90
2023-01-13T00:05:15.547Z,51.92
2023-01-13T00:07:43.392Z,55.35
2023-01-13T00:10:11.205Z,75.20
2023-01-13T00:12:43.481Z,66.32
2023-01-13T00:15:11.304Z,72.88
2023-01-13T00:17:39.148Z,77.57
2023-01-13T00:20:07.530Z,59.50
2023-01-13T00:22:35.768Z,59.63
2023-01-13T00:25:04.443Z,53.42
2023-01-13T00:27:31.868Z,50.05
2023-01-13T00:29:59.874Z,49.95
2023-01-13T00:32:27.665Z,48.75
2023-01-13T00:34:55.723Z,40.10
2023-01-13T00:37:23.739Z,48.00
2023-01-13T00:39:52.355Z,45.35
2023-01-13T00:42:38.361Z,45.72
2023-01-13T00:45:06.191Z,49.33
2023-01-13T00:47:33.443Z,44.33
2023-01-13T00:50:00.704Z,40.38
2023-01-13T00:52:27.915Z,37.45
2023-01-13T00:54:55.156Z,37.55
2023-01-13T00:57:22.386Z,35.47
2023-01-13T00:59:49.803Z,36.83
2023-01-13T01:02:17.185Z,31.77
2023-01-13T01:04:44.609Z,29.33
2023-01-13T01:07:11.805Z,29.65
2023-01-13T01:09:39.528Z,29.38
2023-01-13T01:12:07.114Z,31.88
2023-01-13T01:14:34.747Z,31.63
2023-01-13T01:17:02.079Z,31.02
2023-01-13T01:19:29.319Z,32.83
2023-01-13T01:21:56.520Z,28.83
2023-01-13T01:24:23.772Z,33.22
2023-01-13T01:26:51.093Z,37.55
2023-01-13T01:29:18.319Z,31.40
2023-01-13T01:31:45.603Z,33.33
2023-01-13T01:34:12.997Z,36.13
2023-01-13T01:36:41.147Z,33.92
2023-01-13T01:39:08.453Z,35.33
2023-01-13T01:41:36.707Z,37.08
2023-01-13T01:44:42.170Z,36.80
2023-01-13T01:47:14.216Z,34.10
2023-01-13T01:49:42.966Z,33.83
2023-01-13T01:52:26.228Z,38.65
2023-01-13T01:54:59.644Z,33.28
2023-01-13T01:57:32.396Z,31.67
2023-01-13T02:00:01.129Z,30.45
2023-01-13T02:02:30.566Z,30.40
2023-01-13T02:04:59.280Z,32.92
2023-01-13T02:07:30.537Z,34.40
2023-01-13T02:10:01.595Z,29.30
2023-01-13T02:12:29.460Z,38.40
2023-01-13T02:15:01.284Z,32.15
2023-01-13T02:17:47.938Z,29.00
2023-01-13T02:20:21.139Z,32.80
2023-01-13T02:23:30.241Z,32.53
2023-01-13T02:26:25.323Z,28.75
2023-01-13T02:29:20.496Z,29.40
2023-01-13T02:31:51.048Z,29.45
2023-01-13T02:34:34.561Z,33.85
2023-01-13T02:37:13.968Z,29.65
2023-01-13T02:39:59.549Z,29.65
2023-01-13T02:43:14.850Z,29.95
2023-01-13T02:46:16.916Z,28.83
2023-01-13T02:48:48.360Z,33.03
2023-01-13T02:51:19.784Z,31.70
2023-01-13T02:53:53.657Z,36.60
2023-01-13T02:56:23.251Z,35.10
2023-01-13T02:58:51.257Z,36.38
2023-01-13T03:01:18.894Z,35.20
2023-01-13T03:03:47.052Z,34.42
2023-01-13T03:06:17.148Z,33.20
2023-01-13T03:09:03.907Z,35.35
2023-01-13T03:11:43.957Z,34.08
2023-01-13T03:14:34.046Z,33.72
2023-01-13T03:17:39.597Z,33.60
2023-01-13T03:20:16.888Z,36.85
2023-01-13T03:23:14.313Z,38.13
2023-01-13T03:25:51.850Z,31.58
2023-01-13T03:28:25.919Z,31.40
2023-01-13T03:30:58.913Z,26.20
2023-01-13T03:33:30.977Z,25.10
2023-01-13T03:36:03.699Z,26.60
2023-01-13T03:38:30.902Z,28.13
2023-01-13T03:41:05.536Z,27.65
2023-01-13T03:44:01.018Z,26.15
2023-01-13T03:46:37.374Z,26.58
2023-01-13T03:49:09.253Z,26.35
2023-01-13T03:51:40.543Z,27.08
2023-01-13T03:54:12.619Z,23.95
2023-01-13T03:56:45.399Z,28.70
2023-01-13T03:59:19.448Z,27.17
2023-01-13T04:02:01.677Z,30.88
2023-01-13T04:04:38.430Z,29.25
2023-01-13T04:07:23.876Z,28.20
2023-01-13T04:09:54.517Z,27.85
2023-01-13T04:13:02.706Z,29.63
2023-01-13T04:15:31.922Z,22.02
2023-01-13T04:18:09.958Z,26.60
2023-01-13T04:20:37.843Z,25.15
2023-01-13T04:23:05.153Z,29.25
2023-01-13T04:25:32.602Z,29.83
2023-01-13T04:27:59.840Z,28.73
2023-01-13T04:30:27.281Z,27.65
2023-01-13T04:32:55.037Z,29.55
2023-01-13T04:35:22.388Z,33.75
2023-01-13T04:37:49.647Z,29.10
2023-01-13T04:40:17.366Z,32.63
2023-01-13T04:42:45.452Z,38.53
2023-01-13T04:45:13.092Z,34.03
2023-01-13T04:47:41.995Z,32.47
2023-01-13T04:50:10.584Z,40.70
2023-01-13T04:52:38.621Z,37.58
2023-01-13T04:55:06.761Z,38.15
2023-01-13T04:57:35.054Z,42.95
2023-01-13T05:00:02.294Z,41.15
2023-01-13T05:02:29.586Z,40.47
2023-01-13T05:04:56.908Z,42.00
2023-01-13T05:07:24.210Z,44.35
2023-01-13T05:09:51.439Z,40.47
2023-01-13T05:12:37.575Z,43.10
2023-01-13T05:15:24.259Z,39.45
2023-01-13T05:17:51.590Z,36.72
2023-01-13T05:20:18.949Z,42.20
2023-01-13T05:23:05.041Z,32.13
2023-01-13T05:25:43.456Z,37.90
2023-01-13T05:28:11.847Z,41.72
2023-01-13T05:30:42.522Z,41.85
2023-01-13T05:33:11.584Z,43.78
2023-01-13T05:35:44.289Z,48.07
2023-01-13T05:38:12.581Z,49.47
2023-01-13T05:40:59.763Z,38.80
2023-01-13T05:43:27.438Z,47.20
2023-01-13T05:45:58.890Z,49.05
2023-01-13T05:48:34.965Z,52.55
2023-01-13T05:51:04.479Z,48.28
2023-01-13T05:53:32.964Z,50.35
2023-01-13T05:56:00.769Z,47.28
2023-01-13T05:58:28.250Z,36.38
2023-01-13T06:01:07.938Z,47.05
2023-01-13T06:03:35.910Z,47.20
2023-01-13T06:06:04.229Z,50.28
2023-01-13T06:08:32.805Z,42.42
2023-01-13T06:11:00.254Z,44.92
2023-01-13T06:13:27.883Z,36.30
2023-01-13T06:15:59.169Z,38.50
2023-01-13T06:18:27.119Z,39.30
2023-01-13T06:20:54.963Z,44.22
2023-01-13T06:23:22.417Z,37.72
2023-01-13T06:26:07.048Z,33.97
2023-01-13T06:28:34.973Z,47.78
2023-01-13T06:31:07.560Z,44.47
2023-01-13T06:33:59.065Z,43.30
2023-01-13T06:36:32.944Z,38.60
2023-01-13T06:39:02.859Z,39.70
2023-01-13T06:41:51.090Z,36.28
2023-01-13T06:44:20.576Z,38.00
2023-01-13T06:46:48.093Z,41.00
2023-01-13T06:49:15.415Z,48.00
2023-01-13T06:51:43.032Z,41.20
2023-01-13T06:54:10.268Z,45.90
2023-01-13T06:56:37.512Z,37.47
2023-01-13T06:59:04.893Z,39.05
2023-01-13T07:01:32.249Z,39.35
2023-01-13T07:03:59.611Z,36.13
2023-01-13T07:06:26.992Z,39.05
2023-01-13T07:08:54.410Z,35.92
2023-01-13T07:11:21.628Z,37.50
2023-01-13T07:14:07.519Z,37.80
2023-01-13T07:16:34.890Z,32.45
2023-01-13T07:19:02.249Z,32.38
2023-01-13T07:21:29.489Z,28.38
2023-01-13T07:23:56.862Z,30.05
2023-01-13T07:26:24.129Z,34.97
2023-01-13T07:28:51.536Z,35.88
2023-01-13T07:31:21.246Z,34.92
2023-01-13T07:33:48.946Z,30.55
2023-01-13T07:36:16.297Z,36.55
2023-01-13T07:38:44.627Z,28.05
2023-01-13T07:41:32.695Z,32.75
2023-01-13T07:44:00.604Z,27.88
2023-01-13T07:46:27.887Z,33.40
2023-01-13T07:48:55.137Z,33.42
2023-01-13T07:51:22.613Z,32.03
2023-01-13T07:53:50.021Z,29.15
2023-01-13T07:56:17.505Z,38.78
2023-01-13T07:58:50.209Z,39.58
2023-01-13T08:01:18.500Z,29.48
2023-01-13T08:03:45.946Z,28.23
2023-01-13T08:06:14.197Z,37.45
2023-01-13T08:08:41.723Z,30.80
2023-01-13T08:11:09.195Z,30.88
2023-01-13T08:13:36.682Z,27.70
2023-01-13T08:16:07.349Z,32.72
2023-01-13T08:18:35.837Z,44.53
2023-01-13T08:21:12.648Z,28.27
2023-01-13T08:23:41.949Z,29.73
2023-01-13T08:26:11.822Z,34.15
2023-01-13T08:28:42.324Z,38.10
2023-01-13T08:31:16.222Z,30.20
2023-01-13T08:33:44.522Z,39.17
2023-01-13T08:36:12.908Z,33.42
2023-01-13T08:38:41.191Z,48.10
2023-01-13T08:41:13.028Z,44.20
2023-01-13T08:43:40.376Z,44.78
2023-01-13T08:46:07.920Z,33.40
2023-01-13T08:48:35.508Z,33.58
2023-01-13T08:51:08.931Z,38.33
2023-01-13T08:53:36.258Z,37.08
2023-01-13T08:56:10.958Z,39.65
2023-01-13T08:58:38.707Z,40.88
2023-01-13T09:01:07.344Z,40.08
2023-01-13T09:03:34.794Z,36.50
2023-01-13T09:06:02.062Z,35.97
2023-01-13T09:08:29.352Z,37.15
2023-01-13T09:10:57.684Z,36.67
2023-01-13T09:13:25.429Z,36.97
2023-01-13T09:15:56.407Z,35.95
2023-01-13T09:18:23.982Z,35.83
2023-01-13T09:20:51.345Z,31.40
2023-01-13T09:23:18.593Z,33.80
2023-01-13T09:25:45.927Z,34.20
2023-01-13T09:28:13.247Z,33.50
2023-01-13T09:30:40.469Z,34.15
2023-01-13T09:33:26.412Z,32.53
2023-01-13T09:35:59.082Z,34.72
2023-01-13T09:38:26.351Z,31.95
2023-01-13T09:40:54.663Z,33.63
2023-01-13T09:43:52.545Z,32.55
2023-01-13T09:46:43.021Z,29.40
2023-01-13T09:49:20.847Z,31.63
2023-01-13T09:52:09.965Z,32.70
2023-01-13T09:54:42.987Z,29.23
2023-01-13T09:57:15.387Z,29.70
2023-01-13T09:59:43.170Z,30.42
2023-01-13T10:02:37.396Z,34.33
2023-01-13T10:05:15.480Z,33.83
2023-01-13T10:07:52.694Z,37.65
2023-01-13T10:10:42.109Z,37.92
2023-01-13T10:13:20.188Z,36.00
2023-01-13T10:16:02.846Z,31.25
2023-01-13T10:18:51.977Z,31.13
2023-01-13T10:21:56.829Z,31.83
2023-01-13T10:24:54.982Z,29.42
2023-01-13T10:27:32.472Z,33.95
2023-01-13T10:29:59.957Z,28.08
2023-01-13T10:32:27.176Z,32.08
2023-01-13T10:34:57.413Z,32.38
2023-01-13T10:37:27.655Z,33.55
2023-01-13T10:39:57.461Z,31.13
2023-01-13T10:42:25.537Z,32.45
2023-01-13T10:44:55.300Z,29.83
2023-01-13T10:47:27.067Z,29.42
2023-01-13T10:50:02.421Z,29.50
2023-01-13T10:52:33.365Z,29.15
2023-01-13T10:55:01.171Z,29.45
2023-01-13T10:57:28.508Z,31.95
2023-01-13T10:59:56.437Z,30.27
2023-01-13T11:02:27.301Z,29.98
2023-01-13T11:04:54.655Z,31.10
2023-01-13T11:07:41.530Z,35.15
2023-01-13T11:10:27.567Z,36.42
2023-01-13T11:13:13.629Z,31.88
2023-01-13T11:15:55.298Z,31.75
2023-01-13T11:18:28.444Z,29.38
2023-01-13T11:20:58.612Z,34.20
2023-01-13T11:23:42.053Z,35.25
2023-01-13T11:26:20.700Z,36.10
2023-01-13T11:29:10.186Z,33.20
2023-01-13T11:31:43.297Z,27.25
2023-01-13T11:34:35.933Z,32.60
2023-01-13T11:37:10.545Z,29.95
2023-01-13T11:39:49.759Z,30.10
2023-01-13T11:42:46.705Z,29.48
2023-01-13T11:45:25.946Z,31.83
2023-01-13T11:47:58.337Z,31.70
2023-01-13T11:50:28.771Z,30.00
2023-01-13T11:53:09.701Z,33.25
2023-01-13T11:55:46.093Z,30.52
2023-01-13T11:58:50.544Z,32.20
2023-01-13T12:01:34.752Z,31.40
2023-01-13T12:04:26.407Z,27.50
2023-01-13T12:07:14.112Z,27.27
2023-01-13T12:10:00.120Z,28.10
2023-01-13T12:12:50.993Z,39.17
2023-01-13T12:15:24.152Z,30.65
2023-01-13T12:18:12.719Z,33.35
2023-01-13T12:21:01.683Z,29.17
2023-01-13T12:23:47.337Z,29.35
2023-01-13T12:26:16.658Z,26.88
2023-01-13T12:28:53.626Z,26.93
2023-01-13T12:31:22.181Z,26.70
2023-01-13T12:34:04.531Z,27.25
2023-01-13T12:37:01.440Z,28.75
2023-01-13T12:39:29.223Z,29.38
2023-01-13T12:42:29.726Z,27.52
2023-01-13T12:45:12.116Z,28.20
2023-01-13T12:47:44.110Z,27.90
2023-01-13T12:50:26.408Z,27.55
2023-01-13T12:52:55.573Z,26.85
2023-01-13T12:55:31.152Z,27.40
2023-01-13T12:58:10.419Z,25.75
2023-01-13T13:00:56.746Z,28.50
2023-01-13T13:03:32.304Z,28.52
2023-01-13T13:06:02.183Z,30.60
2023-01-13T13:11:54.563Z,35.90
2023-01-13T13:14:37.045Z,44.58
2023-01-13T13:17:31.718Z,31.05
2023-01-13T13:20:01.493Z,46.83
2023-01-13T13:22:28.746Z,32.22
2023-01-13T13:24:56.210Z,47.00
2023-01-13T13:27:42.665Z,31.20
2023-01-13T13:30:28.555Z,29.63
2023-01-13T13:33:33.280Z,25.15
2023-01-13T13:36:16.624Z,23.98
2023-01-13T13:39:11.439Z,23.63
2023-01-13T13:42:03.710Z,22.52
2023-01-13T13:44:59.524Z,22.88
2023-01-13T13:47:37.890Z,22.45
2023-01-13T13:50:09.037Z,21.50
2023-01-13T13:53:09.581Z,22.40
2023-01-13T13:55:36.906Z,21.90
2023-01-13T13:58:04.540Z,23.00
2023-01-13T14:00:35.659Z,27.83
2023-01-13T14:03:02.865Z,40.92
2023-01-13T14:05:37.359Z,28.38
2023-01-13T14:08:23.037Z,30.42
2023-01-13T14:10:50.387Z,32.92
2023-01-13T14:13:22.820Z,35.65
2023-01-13T14:15:56.812Z,30.73
2023-01-13T14:18:25.073Z,26.65
2023-01-13T14:21:00.756Z,22.15
2023-01-13T14:23:33.535Z,22.38
2023-01-13T14:26:09.555Z,23.77
2023-01-13T14:28:38.678Z,26.17
2023-01-13T14:31:08.160Z,25.33
2023-01-13T14:33:38.879Z,23.42
2023-01-13T14:36:18.692Z,24.15
2023-01-13T14:38:50.312Z,24.35
2023-01-13T14:41:22.159Z,27.15
2023-01-13T14:43:51.048Z,27.70
2023-01-13T14:46:19.318Z,28.33
2023-01-13T14:48:48.071Z,27.70
2023-01-13T14:51:27.817Z,27.38
2023-01-13T14:53:55.843Z,27.83
2023-01-13T14:56:49.904Z,29.33
2023-01-13T14:59:43.635Z,30.40
2023-01-13T15:02:29.339Z,30.90
2023-01-13T15:05:00.997Z,31.63
2023-01-13T15:07:30.958Z,33.10
2023-01-13T15:12:39.353Z,29.02
2023-01-13T15:15:21.067Z,30.23
2023-01-13T15:17:48.349Z,30.13
2023-01-13T15:20:21.106Z,31.60
2023-01-13T15:22:49.438Z,33.88
2023-01-13T15:25:17.152Z,37.67
2023-01-13T15:27:46.416Z,43.80
2023-01-13T15:30:18.641Z,43.78
2023-01-13T15:32:46.035Z,46.55
2023-01-13T15:35:15.324Z,50.20
2023-01-13T15:37:43.899Z,39.47
2023-01-13T15:40:15.305Z,37.72
2023-01-13T15:43:01.036Z,41.40
2023-01-13T15:45:47.620Z,40.55
2023-01-13T15:48:14.967Z,45.47
2023-01-13T15:50:42.189Z,38.65
2023-01-13T15:53:14.379Z,38.40
2023-01-13T15:55:45.015Z,41.45
2023-01-13T15:58:13.708Z,36.70
2023-01-13T16:00:42.349Z,36.33
2023-01-13T16:03:14.075Z,35.10
2023-01-13T16:05:42.019Z,31.70
2023-01-13T16:08:18.675Z,33.00
2023-01-13T16:10:46.541Z,32.92
2023-01-13T16:13:14.450Z,32.80
2023-01-13T16:15:48.639Z,34.78
2023-01-13T16:18:23.773Z,34.72
2023-01-13T16:20:55.290Z,35.65
2023-01-13T16:23:22.984Z,32.90
2023-01-13T16:25:51.025Z,31.52
2023-01-13T16:28:26.249Z,30.73
2023-01-13T16:30:54.123Z,35.75
2023-01-13T16:33:21.486Z,30.60
2023-01-13T16:36:10.065Z,31.55
2023-01-13T16:38:36.873Z,34.33
2023-01-13T16:41:04.382Z,32.25
2023-01-13T16:43:32.273Z,33.35
2023-01-13T16:45:59.663Z,33.53
2023-01-13T16:48:27.177Z,34.92
2023-01-13T16:50:54.929Z,33.35
2023-01-13T16:53:22.204Z,34.08
2023-01-13T16:55:49.487Z,36.45
2023-01-13T16:58:20.016Z,38.40
2023-01-13T17:00:48.160Z,43.58
2023-01-13T17:03:16.553Z,36.88
2023-01-13T17:05:49.361Z,37.42
2023-01-13T17:08:20.475Z,38.53
2023-01-13T17:10:47.829Z,41.45
2023-01-13T17:13:16.923Z,42.78
2023-01-13T17:15:46.033Z,46.33
2023-01-13T17:18:13.703Z,42.67
2023-01-13T17:20:41.322Z,41.80
2023-01-13T17:23:08.631Z,43.55
2023-01-13T17:25:35.908Z,41.63
2023-01-13T17:28:03.417Z,42.75
2023-01-13T17:30:30.692Z,43.63
2023-01-13T17:32:57.907Z,43.47
2023-01-13T17:35:25.505Z,40.78
2023-01-13T17:37:54.252Z,41.08
2023-01-13T17:40:21.715Z,41.53
2023-01-13T17:42:48.922Z,40.47
2023-01-13T17:45:16.463Z,41.90
2023-01-13T17:47:43.643Z,39.50
2023-01-13T17:50:10.907Z,40.28
2023-01-13T17:52:38.582Z,40.53
2023-01-13T17:55:06.259Z,40.50
2023-01-13T17:57:35.197Z,39.47
2023-01-13T18:02:54.555Z,50.45
2023-01-13T18:05:21.883Z,55.25
2023-01-13T18:07:49.168Z,63.35
2023-01-13T18:10:16.831Z,65.47
2023-01-13T18:12:44.072Z,59.10
2023-01-13T18:15:11.467Z,67.18
2023-01-13T18:17:38.784Z,64.40
2023-01-13T18:20:25.373Z,62.90
2023-01-13T18:23:10.957Z,56.40
2023-01-13T18:25:58.345Z,57.83
2023-01-13T18:28:25.705Z,50.78
2023-01-13T18:30:52.998Z,45.33
2023-01-13T18:33:20.250Z,43.83
2023-01-13T18:35:48.108Z,42.03
2023-01-13T18:38:21.254Z,40.22
2023-01-13T18:40:49.091Z,46.42
2023-01-13T18:43:16.311Z,52.22
2023-01-13T18:45:43.621Z,47.20
2023-01-13T18:48:11.861Z,52.35
2023-01-13T18:50:39.073Z,38.22
2023-01-13T18:53:06.298Z,39.53
2023-01-13T18:55:33.792Z,35.53
2023-01-13T18:58:01.353Z,36.60
2023-01-13T19:00:29.408Z,34.75
2023-01-13T19:05:35.359Z,39.50
2023-01-13T19:08:03.448Z,39.65
2023-01-13T19:10:32.648Z,39.55
2023-01-13T19:13:01.592Z,36.85
2023-01-13T19:15:30.404Z,48.53
2023-01-13T19:17:57.942Z,46.30
2023-01-13T19:20:26.139Z,41.70
2023-01-13T19:22:56.114Z,43.13
2023-01-13T19:27:50.793Z,39.47
2023-01-13T19:30:19.064Z,41.33
2023-01-13T19:32:46.342Z,47.13
2023-01-13T19:35:17.407Z,48.20
2023-01-13T19:37:44.838Z,43.13
2023-01-13T19:40:15.791Z,56.30
2023-01-13T19:43:02.482Z,55.65
2023-01-13T19:45:32.137Z,52.38
2023-01-13T19:48:01.989Z,52.70
2023-01-13T19:50:29.641Z,52.30
2023-01-13T19:52:57.012Z,56.38
2023-01-13T19:55:24.343Z,54.05
2023-01-13T19:57:51.614Z,55.60
2023-01-13T20:00:20.863Z,50.72
2023-01-13T20:02:49.879Z,51.85
2023-01-13T20:05:21.820Z,52.63
2023-01-13T20:07:50.755Z,57.10
2023-01-13T20:10:20.193Z,52.73
2023-01-13T20:15:15.483Z,46.42
2023-01-13T20:17:42.700Z,46.25
2023-01-13T20:20:12.090Z,50.85
2023-01-13T20:22:40.095Z,53.58
2023-01-13T20:25:08.757Z,51.88
2023-01-13T20:27:37.730Z,54.30
2023-01-13T20:30:06.642Z,56.80
2023-01-13T20:32:33.875Z,56.22
2023-01-13T20:35:01.160Z,50.47
2023-01-13T20:37:28.438Z,46.42
2023-01-13T20:39:58.128Z,45.33
2023-01-13T20:42:44.220Z,44.97
2023-01-13T20:45:17.165Z,46.22
2023-01-13T20:47:45.763Z,46.20
2023-01-13T20:50:13.924Z,48.50
2023-01-13T20:52:41.225Z,50.78
2023-01-13T20:55:09.478Z,73.75
2023-01-13T20:57:36.883Z,74.88
2023-01-13T21:00:05.901Z,54.10
2023-01-13T21:02:33.158Z,50.00
2023-01-13T21:05:00.377Z,48.03
2023-01-13T21:07:28.423Z,48.95
2023-01-13T21:09:57.362Z,51.03
2023-01-13T21:12:43.362Z,46.77
2023-01-13T21:15:19.719Z,45.40
2023-01-13T21:18:08.498Z,48.17
2023-01-13T21:20:37.188Z,53.28
2023-01-13T21:23:05.169Z,77.57
2023-01-13T21:25:35.381Z,72.50
2023-01-13T21:28:06.293Z,65.88
2023-01-13T21:30:34.133Z,60.40
2023-01-13T21:33:02.569Z,63.88
2023-01-13T21:35:29.875Z,41.42
2023-01-13T21:37:57.597Z,41.85
2023-01-13T21:40:25.009Z,44.72
2023-01-13T21:43:10.972Z,42.67
2023-01-13T21:45:57.914Z,50.67
2023-01-13T21:48:25.246Z,47.60
2023-01-13T21:50:52.538Z,41.17
2023-01-13T21:53:19.830Z,39.65
2023-01-13T21:55:52.368Z,38.03
2023-01-13T21:58:19.652Z,40.92
2023-01-13T22:00:49.037Z,39.88
2023-01-13T22:03:18.754Z,40.80
2023-01-13T22:05:47.187Z,42.05
2023-01-13T22:08:15.268Z,41.00
2023-01-13T22:10:58.685Z,44.90
2023-01-13T22:13:45.892Z,43.17
2023-01-13T22:16:15.161Z,45.22
2023-01-13T22:18:42.503Z,44.50
2023-01-13T22:21:10.980Z,44.72
2023-01-13T22:23:38.233Z,47.70
2023-01-13T22:26:07.578Z,47.75
2023-01-13T22:28:40.890Z,69.70
2023-01-13T22:31:11.129Z,65.28
2023-01-13T22:33:38.647Z,53.13
2023-01-13T22:36:06.627Z,46.70
2023-01-13T22:38:35.122Z,47.20
2023-01-13T22:41:04.728Z,50.33
2023-01-13T22:43:32.404Z,50.85
2023-01-13T22:46:07.483Z,50.70
2023-01-13T22:48:35.686Z,48.17
2023-01-13T22:51:11.019Z,50.88
2023-01-13T22:53:39.023Z,51.03
2023-01-13T22:56:07.303Z,53.20
2023-01-13T22:58:34.627Z,55.50
2023-01-13T23:01:18.104Z,56.22
2023-01-13T23:03:47.853Z,51.58
2023-01-13T23:08:43.143Z,50.53
2023-01-13T23:11:13.525Z,52.28
2023-01-13T23:13:43.489Z,52.17
2023-01-13T23:16:13.673Z,49.50
2023-01-13T23:18:48.742Z,48.15
2023-01-13T23:21:22.208Z,49.25
2023-01-13T23:23:50.311Z,47.08
2023-01-13T23:26:18.009Z,45.38
2023-01-13T23:28:45.448Z,45.00
2023-01-13T23:31:15.454Z,46.53
2023-01-13T23:33:43.966Z,48.10
2023-01-13T23:36:20.744Z,50.45
2023-01-13T23:38:48.035Z,48.22
2023-01-13T23:41:18.058Z,48.35
2023-01-13T23:43:52.166Z,48.17
2023-01-13T23:46:20.672Z,46.60
2023-01-13T23:48:49.587Z,46.75
2023-01-13T23:51:17.191Z,47.78
2023-01-13T23:53:47.043Z,45.40
2023-01-13T23:58:46.693Z,45.00
